Basalt, CO (81621)

3:09 AM MDT on September 05, 2015 (GMT -0600)
CODOT | | Change Station
CLOSE
Current Station
Personal Weather Station
Location: Basalt, CO
Elevation: 6611 ft
Nearby Weather Stations

Elev 6611 ft 39.36 °N, 107.03 °W | Updated 36 days ago

Thunderstorm
Thunderstorm
50 °F
Feels Like 50 °F
N
3
Wind Variable Wind from SW
Gusts mph

Today
High -- | Low -- °F
--% Chance of Precip.
Yesterday
High -- | Low -- °F
Precip. -- in
6:39 AM 7:32 PM
Waning Gibbous, 50% visible
Pressure 29.87 in
Visibility 10.0 miles
Clouds Overcast 9000 ft
Dew Point 48 °F
Humidity 95%
Rainfall in
Snow Depth Not available.
UV 0 out of 12
Pollen 9.00 out of 12
Air Quality Not available.
Flu Activity Not available.
METAR KASE 050853Z AUTO 00000KT 10SM OVC090 10/08 A3017 RMK AO2 SLP114 T01000083 58002
Pressure 29.87 in
Visibility 10.0 miles
Clouds Overcast 9000 ft
Dew Point 48 °F
Humidity 95%
Rainfall in
Snow Depth Not available.
UV 0 out of 12
Pollen 9.00 out of 12
Air Quality Not available.
Flu Activity Not available.
METAR KASE 050853Z AUTO 00000KT 10SM OVC090 10/08 A3017 RMK AO2 SLP114 T01000083 58002

10-Day Weather Forecast

×

Almanac

Astronomy

Sep. 05, 2015 Rise Set
Actual Time
Civil Twilight
Nautical Twilight
Astronomical Twilight
Moon
Length of Visible Light
Length of Day
Tomorrow will be .
, % of the Moon is Illuminated

Today's Extremes

State Highs State Lows

Community

WunderPhotos

Upload Photos

1,852,440 photos uploaded!

WunderBlogs® & News

Nearby

Air Quality

  Air Quality AQ Index Pollutant
Not available.

Snow Depth

Station Depth Elevation

Earthquake Activity

City Distance Mag. Time & Date
Minimum magnitude displayed is 2.5.

Coastal Water Temperatures

Place Temperature

Stations

Nearby Weather Stations

Station Location Temp. Windchill Dew Point Humidity Wind Precip. Elev Updated Type